Time;durP1;ratioP1;P1;durP2;ratioP2;P2;SDS_P1;SDS_P2;PMS_P1;PMS_P2;Temp;Humidity;BMP_temperature;BMP_pressure;BME280_temperature;BME280_humidity;BME280_pressure;Samples;Min_cycle;Max_cycle;Signal;HPM_P1;HPM_P2
2023/08/29 00:00:48;;;;;;;7.05;6.45;;;;;;;13.91;100.00;100680.88;6076248;23;20023;-71
2023/08/29 00:03:17;;;;;;;6.78;6.28;;;;;;;13.79;100.00;100660.59;6114639;23;20087;-69
2023/08/29 00:05:43;;;;;;;7.05;6.40;;;;;;;13.26;100.00;100571.72;6092130;23;20032;-71
2023/08/29 00:08:09;;;;;;;8.00;7.20;;;;;;;13.61;100.00;100608.16;6111869;23;20029;-71
2023/08/29 00:10:36;;;;;;;8.00;7.30;;;;;;;13.97;100.00;100656.72;6093416;23;20060;-71
2023/08/29 00:13:02;;;;;;;8.23;7.53;;;;;;;13.91;100.00;100639.53;6095497;23;20080;-70
2023/08/29 00:15:29;;;;;;;7.40;6.82;;;;;;;13.84;100.00;100621.59;6090874;23;20033;-70
2023/08/29 00:17:56;;;;;;;8.15;7.45;;;;;;;14.02;100.00;100662.56;6116494;23;20075;-70
2023/08/29 00:20:22;;;;;;;8.35;7.60;;;;;;;13.10;100.00;100505.16;6091923;23;20042;-70
2023/08/29 00:22:49;;;;;;;7.80;7.13;;;;;;;14.08;100.00;100666.59;6113070;23;20033;-71
2023/08/29 00:25:15;;;;;;;7.70;7.00;;;;;;;13.66;100.00;100605.19;6113984;23;20022;-70
2023/08/29 00:27:42;;;;;;;8.00;7.30;;;;;;;13.42;100.00;100550.50;6113716;23;20049;-70
2023/08/29 00:30:08;;;;;;;7.80;7.10;;;;;;;13.96;100.00;100621.59;6108683;23;20018;-70
2023/08/29 00:32:35;;;;;;;7.82;7.13;;;;;;;13.87;100.00;100606.41;6112029;23;20026;-70
2023/08/29 00:35:01;;;;;;;8.10;7.10;;;;;;;14.13;100.00;100646.84;6112185;23;20112;-70
2023/08/29 00:37:28;;;;;;;7.65;7.05;;;;;;;14.25;100.00;100668.06;6111157;23;20017;-70
2023/08/29 00:39:55;;;;;;;8.45;7.60;;;;;;;13.87;100.00;100611.69;6111454;23;20033;-70
2023/08/29 00:42:22;;;;;;;8.73;8.00;;;;;;;14.04;100.00;100638.72;6117080;23;20155;-70
2023/08/29 00:44:48;;;;;;;8.05;7.28;;;;;;;13.57;100.00;100573.22;6118333;23;20062;-70
2023/08/29 00:47:15;;;;;;;7.70;7.10;;;;;;;14.15;100.00;100655.50;6089919;23;20089;-71
2023/08/29 00:49:41;;;;;;;8.98;8.02;;;;;;;13.94;100.00;100623.50;6090410;23;20041;-71
2023/08/29 00:52:08;;;;;;;7.75;7.10;;;;;;;13.40;100.00;100527.84;6094009;23;20005;-70
2023/08/29 00:54:34;;;;;;;8.95;7.30;;;;;;;14.31;100.00;100691.41;6112290;23;20577;-70
2023/08/29 00:57:01;;;;;;;8.05;7.35;;;;;;;14.02;100.00;100649.38;6114318;23;20036;-70
2023/08/29 00:59:27;;;;;;;8.80;8.00;;;;;;;13.91;100.00;100634.25;6112761;23;20090;-70
2023/08/29 01:01:54;;;;;;;8.65;7.85;;;;;;;14.01;100.00;100652.09;6115587;23;20098;-69
2023/08/29 01:04:20;;;;;;;8.73;7.93;;;;;;;13.85;100.00;100620.63;6113202;23;20104;-70
2023/08/29 01:06:47;;;;;;;8.38;7.57;;;;;;;14.02;100.00;100659.09;6115278;23;20047;-70
2023/08/29 01:09:13;;;;;;;8.23;7.53;;;;;;;14.26;100.00;100690.88;6113188;23;20116;-69
2023/08/29 01:11:54;;;;;;;7.53;6.90;;;;;;;14.26;100.00;100686.44;6093961;23;20041;-70
2023/08/29 01:14:31;;;;;;;7.68;7.07;;;;;;;14.04;100.00;100657.19;6118812;23;20144;-72
2023/08/29 01:17:25;;;;;;;8.48;7.68;;;;;;;13.95;100.00;100661.25;6085520;23;20393;-70
2023/08/29 01:19:53;;;;;;;8.40;7.70;;;;;;;14.19;100.00;100697.50;6114515;23;20022;-70
2023/08/29 01:22:25;;;;;;;8.90;8.10;;;;;;;14.13;100.00;100698.78;6086212;23;20160;-71
2023/08/29 01:25:20;;;;;;;9.35;7.93;;;;;;;14.08;100.00;100701.72;6115460;23;20052;-70
2023/08/29 01:27:47;;;;;;;8.00;7.38;;;;;;;14.00;100.00;100701.41;6114496;23;20311;-71
2023/08/29 01:30:15;;;;;;;7.80;7.20;;;;;;;13.43;100.00;100620.75;6114257;23;20013;-70
2023/08/29 01:32:42;;;;;;;9.05;8.10;;;;;;;13.92;100.00;100720.38;6112457;23;20056;-71
2023/08/29 01:35:12;;;;;;;8.30;7.60;;;;;;;13.91;100.00;100715.19;6111300;23;20435;-71
2023/08/29 01:37:39;;;;;;;8.13;7.43;;;;;;;13.46;100.00;100653.97;6098498;23;20026;-70
2023/08/29 01:40:06;;;;;;;13.40;9.00;;;;;;;13.80;100.00;100713.25;6119406;23;20547;-71
2023/08/29 01:42:32;;;;;;;8.38;7.63;;;;;;;13.81;100.00;100719.38;6118120;23;20056;-69
2023/08/29 01:44:59;;;;;;;8.63;7.72;;;;;;;13.90;100.00;100734.63;6109516;23;20669;-70
2023/08/29 01:47:25;;;;;;;8.45;7.55;;;;;;;13.90;100.00;100742.53;6119669;23;20029;-71
2023/08/29 01:49:52;;;;;;;8.63;7.75;;;;;;;13.48;100.00;100674.00;6114382;23;21355;-71
2023/08/29 01:52:18;;;;;;;7.85;7.25;;;;;;;13.87;100.00;100766.47;6120943;23;20088;-70
2023/08/29 01:54:45;;;;;;;8.88;7.85;;;;;;;13.43;100.00;100697.19;6117103;23;20029;-70
2023/08/29 01:57:13;;;;;;;8.50;7.75;;;;;;;13.43;100.00;100684.03;6109742;23;20080;-70
2023/08/29 01:59:43;;;;;;;9.70;8.73;;;;;;;13.30;100.00;100659.38;6117144;23;20021;-70
2023/08/29 02:02:09;;;;;;;8.77;7.93;;;;;;;13.83;100.00;100757.91;6110354;23;20582;-71
2023/08/29 02:04:36;;;;;;;8.18;7.38;;;;;;;13.74;100.00;100735.59;6114887;23;20036;-70
2023/08/29 02:07:02;;;;;;;9.98;7.97;;;;;;;13.88;100.00;100758.44;6112183;23;20021;-71
2023/08/29 02:09:31;;;;;;;8.57;7.78;;;;;;;13.12;100.00;100625.31;6114731;23;20021;-70
2023/08/29 02:11:57;;;;;;;9.50;8.13;;;;;;;14.04;100.00;100789.13;6113926;23;20081;-70
2023/08/29 02:14:24;;;;;;;9.00;8.15;;;;;;;13.75;100.00;100742.59;6115897;23;20085;-69
2023/08/29 02:16:50;;;;;;;9.23;8.30;;;;;;;13.94;100.00;100770.41;6110589;23;20029;-70
2023/08/29 02:19:17;;;;;;;9.43;8.63;;;;;;;13.71;100.00;100719.13;6115767;23;20390;-70
2023/08/29 02:21:43;;;;;;;9.25;8.30;;;;;;;12.83;100.00;100592.06;6119032;23;20387;-70
2023/08/29 02:24:10;;;;;;;8.82;8.02;;;;;;;13.49;100.00;100707.34;6116623;23;20076;-72
2023/08/29 02:26:36;;;;;;;9.13;8.00;;;;;;;13.88;100.00;100773.44;6083978;23;20025;-71
2023/08/29 02:29:02;;;;;;;9.80;7.63;;;;;;;13.58;100.00;100727.00;6110507;23;20026;-71
2023/08/29 02:31:29;;;;;;;10.13;8.95;;;;;;;13.50;100.00;100702.91;6109965;23;20106;-70
2023/08/29 02:33:55;;;;;;;9.13;8.10;;;;;;;13.77;100.00;100750.38;6064944;23;20025;-70
2023/08/29 02:36:23;;;;;;;9.10;8.30;;;;;;;13.56;100.00;100719.19;6084357;23;20034;-70
2023/08/29 02:38:50;;;;;;;9.65;8.75;;;;;;;13.74;100.00;100745.31;6109191;23;20044;-69
2023/08/29 02:41:16;;;;;;;9.93;8.35;;;;;;;13.45;100.00;100689.16;6110641;23;20034;-69
2023/08/29 02:43:43;;;;;;;9.70;8.70;;;;;;;12.96;100.00;100606.16;6111023;23;20032;-70
2023/08/29 02:46:09;;;;;;;9.77;8.77;;;;;;;13.95;100.00;100778.22;6088214;23;20022;-69
2023/08/29 02:48:35;;;;;;;9.38;8.55;;;;;;;13.67;100.00;100725.53;6112027;23;20038;-69
2023/08/29 02:51:02;;;;;;;11.93;8.93;;;;;;;13.87;100.00;100775.25;6113162;23;20049;-70
2023/08/29 02:53:29;;;;;;;9.80;8.82;;;;;;;13.88;100.00;100760.25;6115480;23;20014;-69
2023/08/29 02:55:56;;;;;;;11.95;8.80;;;;;;;13.10;100.00;100640.38;6094973;23;20028;-70
2023/08/29 02:58:23;;;;;;;9.38;8.38;;;;;;;13.85;100.00;100756.03;6087048;23;20019;-69
2023/08/29 03:01:03;;;;;;;10.95;9.25;;;;;;;13.63;100.00;100716.13;6117828;23;20013;-70
2023/08/29 03:03:30;;;;;;;10.20;9.18;;;;;;;13.39;100.00;100693.06;6114553;23;20021;-70
2023/08/29 03:05:57;;;;;;;10.55;8.68;;;;;;;13.84;100.00;100738.50;6091860;23;20669;-69
2023/08/29 03:08:24;;;;;;;9.82;8.82;;;;;;;13.68;100.00;100708.78;6088386;23;20021;-71
2023/08/29 03:10:52;;;;;;;10.15;9.10;;;;;;;13.79;100.00;100730.06;6090770;23;20101;-70
2023/08/29 03:13:19;;;;;;;12.75;8.85;;;;;;;13.48;100.00;100678.44;6083227;23;20084;-70
2023/08/29 03:15:46;;;;;;;10.45;9.40;;;;;;;13.31;100.00;100645.25;6109935;23;20032;-69
2023/08/29 03:18:13;;;;;;;10.32;9.25;;;;;;;13.75;100.00;100718.84;6113944;23;20022;-71
2023/08/29 03:20:42;;;;;;;10.85;9.43;;;;;;;13.74;100.00;100711.88;6117217;23;20029;-69
2023/08/29 03:23:10;;;;;;;10.13;9.07;;;;;;;13.72;100.00;100712.91;6116615;23;20077;-70
2023/08/29 03:25:38;;;;;;;14.25;9.80;;;;;;;13.23;100.00;100642.22;6089470;23;20024;-70
2023/08/29 03:28:05;;;;;;;9.65;8.65;;;;;;;13.53;100.00;100685.13;6117070;23;20017;-70
2023/08/29 03:30:31;;;;;;;11.70;8.68;;;;;;;13.67;100.00;100709.72;6102121;23;20021;-72
2023/08/29 03:32:58;;;;;;;10.63;9.20;;;;;;;13.50;100.00;100669.47;6096280;23;20032;-70
2023/08/29 03:35:24;;;;;;;10.27;9.15;;;;;;;13.74;100.00;100697.84;6103901;23;20099;-73
2023/08/29 03:37:51;;;;;;;9.90;8.93;;;;;;;13.68;100.00;100687.69;6085979;23;20060;-70
2023/08/29 03:40:17;;;;;;;10.80;9.23;;;;;;;13.65;100.00;100683.47;6110828;23;20021;-70
2023/08/29 03:42:44;;;;;;;10.38;7.90;;;;;;;13.34;100.00;100616.91;6115297;23;20053;-71
2023/08/29 03:45:10;;;;;;;10.27;8.95;;;;;;;13.52;100.00;100683.41;6112700;23;20099;-70
2023/08/29 03:47:38;;;;;;;9.02;8.15;;;;;;;13.99;100.00;100689.13;6083811;23;20025;-70
2023/08/29 03:50:05;;;;;;;10.07;9.15;;;;;;;13.93;100.00;100642.91;6114195;23;20017;-70
2023/08/29 03:52:32;;;;;;;10.15;8.85;;;;;;;13.75;100.00;100623.03;6092282;23;20034;-71
2023/08/29 03:54:58;;;;;;;10.27;9.13;;;;;;;13.83;100.00;100641.84;6114039;23;20061;-71
2023/08/29 03:57:28;;;;;;;8.57;7.78;;;;;;;13.44;100.00;100625.06;6088190;23;20030;-72
2023/08/29 03:59:55;;;;;;;10.15;8.25;;;;;;;13.65;100.00;100656.22;6112190;23;20041;-71
2023/08/29 04:02:21;;;;;;;10.07;8.63;;;;;;;13.75;100.00;100675.78;6088458;23;20018;-71
2023/08/29 04:04:50;;;;;;;10.07;9.05;;;;;;;13.31;100.00;100618.88;6116130;23;20030;-69
2023/08/29 04:07:18;;;;;;;9.25;8.40;;;;;;;12.78;100.00;100543.19;6089637;23;20495;-70
2023/08/29 04:09:44;;;;;;;10.32;8.88;;;;;;;12.71;100.00;100547.16;6081340;23;20010;-71
2023/08/29 04:12:10;;;;;;;11.15;9.00;;;;;;;13.41;100.00;100656.91;6087688;23;20033;-70
2023/08/29 04:14:37;;;;;;;10.85;9.07;;;;;;;13.48;100.00;100683.72;6115954;23;20025;-71
2023/08/29 04:17:04;;;;;;;10.60;9.13;;;;;;;13.01;100.00;100600.59;6110135;23;20091;-70
2023/08/29 04:19:30;;;;;;;14.05;8.68;;;;;;;13.02;100.00;100616.31;6115847;23;20026;-70
2023/08/29 04:21:59;;;;;;;11.65;9.63;;;;;;;12.55;100.00;100547.28;6062663;23;20029;-70
2023/08/29 04:24:26;;;;;;;10.18;8.95;;;;;;;13.46;100.00;100711.97;6112922;23;20084;-70
2023/08/29 04:26:52;;;;;;;13.05;9.65;;;;;;;13.17;100.00;100669.84;6092683;23;20106;-70
2023/08/29 04:29:19;;;;;;;10.40;9.27;;;;;;;13.36;100.00;100712.53;6116249;23;20041;-72
2023/08/29 04:31:46;;;;;;;10.68;9.43;;;;;;;13.41;100.00;100724.59;6073886;23;20116;-71
2023/08/29 04:34:13;;;;;;;10.18;8.43;;;;;;;13.59;100.00;100714.66;6113744;23;20083;-71
2023/08/29 04:36:39;;;;;;;10.13;9.20;;;;;;;13.61;100.00;100718.03;6112790;23;20032;-72
2023/08/29 04:39:06;;;;;;;10.20;8.70;;;;;;;13.61;100.00;100720.66;6116160;23;20036;-71
2023/08/29 04:41:32;;;;;;;8.35;7.60;;;;;;;13.02;100.00;100633.91;6086143;23;20041;-71
2023/08/29 04:43:59;;;;;;;9.35;8.45;;;;;;;12.95;100.00;100617.66;6085926;23;20046;-72
2023/08/29 04:46:25;;;;;;;9.57;8.57;;;;;;;13.66;100.00;100708.03;6114251;23;20601;-70
2023/08/29 04:48:53;;;;;;;10.20;8.88;;;;;;;13.74;100.00;100714.50;6098492;23;20026;-71
2023/08/29 04:51:19;;;;;;;11.25;9.65;;;;;;;12.70;100.00;100571.78;6091701;23;20022;-70
2023/08/29 04:53:47;;;;;;;11.98;9.52;;;;;;;13.25;100.00;100672.84;6111530;23;20025;-70
2023/08/29 04:56:13;;;;;;;11.70;9.50;;;;;;;13.37;100.00;100702.88;6115848;23;20017;-70
2023/08/29 04:58:40;;;;;;;10.23;9.10;;;;;;;12.49;100.00;100566.09;6113111;23;20267;-70
2023/08/29 05:01:07;;;;;;;10.10;9.20;;;;;;;13.41;100.00;100714.91;6113919;23;20014;-71
2023/08/29 05:03:33;;;;;;;11.93;9.02;;;;;;;13.35;100.00;100716.13;6091794;23;20024;-70
2023/08/29 05:06:00;;;;;;;11.05;9.10;;;;;;;13.44;100.00;100724.41;6115930;23;20045;-70
2023/08/29 05:08:26;;;;;;;12.02;9.45;;;;;;;13.47;100.00;100724.19;6082081;23;20034;-70
2023/08/29 05:10:52;;;;;;;10.00;8.95;;;;;;;13.44;100.00;100725.25;6112413;23;20644;-71
2023/08/29 05:13:19;;;;;;;9.85;8.85;;;;;;;13.05;100.00;100671.47;6111123;23;20037;-71
2023/08/29 05:15:45;;;;;;;9.77;8.77;;;;;;;12.97;100.00;100644.75;6094568;23;20824;-71
2023/08/29 05:18:12;;;;;;;12.88;9.63;;;;;;;13.39;100.00;100702.75;6115853;23;20017;-71
2023/08/29 05:20:38;;;;;;;10.85;9.15;;;;;;;13.10;100.00;100648.28;6091366;23;20018;-70
2023/08/29 05:23:05;;;;;;;11.15;9.38;;;;;;;13.25;100.00;100643.84;6112306;23;20049;-71
2023/08/29 05:25:31;;;;;;;10.45;8.90;;;;;;;13.93;100.00;100706.25;6093840;23;20029;-70
2023/08/29 05:27:58;;;;;;;11.18;8.77;;;;;;;14.04;100.00;100709.97;6118566;23;20026;-70
2023/08/29 05:30:24;;;;;;;11.13;9.15;;;;;;;13.75;100.00;100644.13;6088868;23;20048;-71
2023/08/29 05:32:53;;;;;;;11.55;10.05;;;;;;;14.65;100.00;100691.75;6115650;23;20049;-70
2023/08/29 05:35:19;;;;;;;12.80;9.00;;;;;;;14.49;100.00;100686.66;6059049;23;20441;-70
2023/08/29 05:37:46;;;;;;;18.65;13.82;;;;;;;14.23;100.00;100685.81;6095379;23;20076;-70
2023/08/29 05:40:12;;;;;;;12.40;10.85;;;;;;;14.45;100.00;100699.25;6112545;23;20025;-71
2023/08/29 05:42:38;;;;;;;10.60;9.52;;;;;;;14.81;100.00;100691.53;6115682;23;20028;-71
2023/08/29 05:45:05;;;;;;;11.05;9.30;;;;;;;14.69;100.00;100665.06;6112846;23;20029;-71
2023/08/29 05:47:32;;;;;;;13.93;9.85;;;;;;;14.70;100.00;100674.66;6088346;23;20055;-70
2023/08/29 05:49:59;;;;;;;11.95;9.82;;;;;;;14.55;100.00;100670.38;6091038;23;20084;-70
2023/08/29 05:52:25;;;;;;;10.25;9.13;;;;;;;14.53;100.00;100680.22;6116829;23;20043;-70
2023/08/29 05:54:51;;;;;;;9.98;8.93;;;;;;;14.45;100.00;100679.91;6106172;23;20088;-70
2023/08/29 05:57:18;;;;;;;15.02;9.70;;;;;;;14.37;100.00;100672.50;6116819;23;20018;-70
2023/08/29 05:59:44;;;;;;;12.15;8.93;;;;;;;14.50;100.00;100675.16;6075655;23;20018;-70
2023/08/29 06:02:11;;;;;;;10.60;9.38;;;;;;;14.52;100.00;100686.47;6112490;23;20468;-70
2023/08/29 06:04:37;;;;;;;9.60;8.63;;;;;;;14.53;100.00;100677.56;6113086;23;20591;-70
2023/08/29 06:07:05;;;;;;;11.02;9.45;;;;;;;14.38;100.00;100644.31;6085867;23;20025;-71
2023/08/29 06:09:33;;;;;;;11.25;8.95;;;;;;;14.30;100.00;100634.28;6110618;23;20029;-71
2023/08/29 06:11:59;;;;;;;9.82;8.82;;;;;;;14.31;100.00;100650.03;6111570;23;20030;-71
2023/08/29 06:14:26;;;;;;;12.07;9.20;;;;;;;14.68;100.00;100692.41;6088907;23;20052;-71
2023/08/29 06:16:52;;;;;;;10.05;9.10;;;;;;;14.66;100.00;100683.75;6112908;23;20113;-71
2023/08/29 06:19:19;;;;;;;9.18;8.25;;;;;;;14.74;100.00;100697.25;6114554;23;20044;-70
2023/08/29 06:21:45;;;;;;;10.38;9.48;;;;;;;15.01;100.00;100706.81;6108138;23;20021;-70
2023/08/29 06:24:11;;;;;;;10.57;9.48;;;;;;;15.06;100.00;100698.59;6087341;23;20104;-71
2023/08/29 06:26:38;;;;;;;11.43;9.27;;;;;;;14.90;100.00;100659.19;6109116;23;20029;-70
2023/08/29 06:29:05;;;;;;;10.05;9.02;;;;;;;14.47;100.00;100593.50;6118196;23;20491;-70
2023/08/29 06:31:31;;;;;;;9.43;8.52;;;;;;;15.13;100.00;100687.47;6087052;23;20197;-70
2023/08/29 06:33:59;;;;;;;9.55;8.60;;;;;;;15.10;100.00;100647.19;6116662;23;20057;-71
2023/08/29 06:36:27;;;;;;;11.23;9.40;;;;;;;14.99;100.00;100578.41;6085729;23;20032;-70
2023/08/29 06:38:53;;;;;;;10.63;9.52;;;;;;;15.56;100.00;100655.25;6094199;23;20021;-71
2023/08/29 06:41:20;;;;;;;11.50;10.10;;;;;;;15.54;100.00;100606.91;6115052;23;20085;-70
2023/08/29 06:43:46;;;;;;;9.90;8.90;;;;;;;15.78;100.00;100650.22;6116654;23;20053;-70
2023/08/29 06:46:14;;;;;;;9.32;8.43;;;;;;;15.59;100.00;100625.09;6091851;23;20018;-70
2023/08/29 06:48:40;;;;;;;8.80;8.00;;;;;;;15.78;100.00;100586.72;6116352;23;20580;-70
2023/08/29 06:51:08;;;;;;;11.73;9.80;;;;;;;16.18;100.00;100628.63;6074535;23;20030;-70
2023/08/29 06:53:34;;;;;;;9.30;8.43;;;;;;;16.20;100.00;100614.34;6095951;23;20768;-71
2023/08/29 06:56:01;;;;;;;10.20;9.20;;;;;;;16.19;100.00;100577.38;6091542;23;20081;-70
2023/08/29 06:58:27;;;;;;;12.02;9.13;;;;;;;16.57;100.00;100624.72;6114747;23;20049;-71
2023/08/29 07:00:54;;;;;;;10.85;9.15;;;;;;;16.53;100.00;100594.13;6061736;23;20044;-70
2023/08/29 07:03:20;;;;;;;10.02;8.95;;;;;;;16.20;100.00;100542.84;6118368;23;20033;-71
2023/08/29 07:05:47;;;;;;;9.80;8.90;;;;;;;16.64;100.00;100598.59;6088937;23;20032;-70
2023/08/29 07:08:13;;;;;;;11.93;9.02;;;;;;;16.63;100.00;100568.59;6116044;23;20035;-70
2023/08/29 07:10:42;;;;;;;11.00;9.45;;;;;;;16.71;100.00;100563.50;6116548;23;20245;-71
2023/08/29 07:13:08;;;;;;;9.93;8.50;;;;;;;16.74;100.00;100570.41;6083161;23;20091;-70
2023/08/29 07:15:34;;;;;;;10.68;9.73;;;;;;;16.74;100.00;100559.78;6113852;23;20028;-71
2023/08/29 07:18:01;;;;;;;11.52;8.82;;;;;;;16.79;100.00;100524.97;6093569;23;20033;-71
2023/08/29 07:20:27;;;;;;;9.98;9.07;;;;;;;17.19;100.00;100564.16;6115094;23;20017;-69
2023/08/29 07:22:56;;;;;;;15.35;9.80;;;;;;;17.06;100.00;100514.78;6089904;23;20026;-70
2023/08/29 07:25:43;;;;;;;10.10;9.15;;;;;;;16.98;100.00;100519.00;6115123;23;20287;-70
2023/08/29 07:28:15;;;;;;;9.52;8.60;;;;;;;16.90;100.00;100499.28;6116341;23;20429;-70
2023/08/29 07:30:47;;;;;;;9.13;8.35;;;;;;;17.24;100.00;100519.50;6088860;23;20039;-69
2023/08/29 07:33:14;;;;;;;10.55;9.50;;;;;;;17.40;100.00;100511.13;6114035;23;20024;-70
2023/08/29 07:35:42;;;;;;;10.18;9.18;;;;;;;17.35;100.00;100469.91;6119497;23;20020;-70
2023/08/29 07:38:09;;;;;;;14.57;10.45;;;;;;;17.65;100.00;100484.19;6112559;23;20089;-69
2023/08/29 07:40:36;;;;;;;10.10;9.10;;;;;;;17.76;100.00;100480.66;6114842;23;20022;-69
2023/08/29 07:43:08;;;;;;;10.63;9.57;;;;;;;17.82;100.00;100458.00;6090411;23;20033;-69
2023/08/29 07:45:35;;;;;;;11.60;10.32;;;;;;;17.55;99.57;100399.22;6114133;23;20029;-70
2023/08/29 07:48:02;;;;;;;15.13;10.65;;;;;;;18.03;97.42;100428.78;6116069;23;20041;-69
2023/08/29 07:50:30;;;;;;;14.70;10.57;;;;;;;18.00;97.45;100415.78;6085752;23;20020;-70
2023/08/29 07:52:56;;;;;;;12.10;9.90;;;;;;;18.24;96.43;100437.53;6115156;23;20045;-71
2023/08/29 07:55:23;;;;;;;12.75;10.82;;;;;;;18.20;94.74;100398.94;6090919;23;20013;-70
2023/08/29 07:57:50;;;;;;;14.80;10.70;;;;;;;18.17;93.75;100366.50;6117561;23;20092;-71
2023/08/29 08:00:17;;;;;;;11.90;10.00;;;;;;;18.58;92.49;100388.47;6070231;23;20436;-70
2023/08/29 08:02:44;;;;;;;14.27;10.65;;;;;;;18.38;90.49;100335.34;6115422;23;20086;-71
2023/08/29 08:05:13;;;;;;;12.07;10.75;;;;;;;18.26;91.72;100310.72;6114102;23;20059;-70
2023/08/29 08:07:40;;;;;;;13.65;10.73;;;;;;;18.59;90.57;100348.47;6111464;23;20488;-71
2023/08/29 08:10:07;;;;;;;17.60;10.73;;;;;;;18.39;89.33;100304.28;6091799;23;20044;-70
2023/08/29 08:12:35;;;;;;;13.43;11.15;;;;;;;18.81;88.51;100341.22;6115690;23;20400;-70
2023/08/29 08:15:04;;;;;;;13.18;10.38;;;;;;;19.08;88.02;100341.31;6116848;23;20056;-69
2023/08/29 08:17:31;;;;;;;13.60;10.32;;;;;;;19.01;86.76;100305.63;6118906;23;20089;-71
2023/08/29 08:19:58;;;;;;;12.10;10.70;;;;;;;18.93;86.92;100298.38;6120544;23;20033;-70
2023/08/29 08:22:24;;;;;;;13.27;10.82;;;;;;;19.31;85.91;100307.19;6090113;23;20086;-72
2023/08/29 08:24:51;;;;;;;15.45;11.80;;;;;;;19.04;84.02;100222.91;6113215;23;20707;-71
2023/08/29 08:27:18;;;;;;;14.65;11.45;;;;;;;19.01;84.00;100225.84;6114682;23;20021;-70
2023/08/29 08:29:45;;;;;;;16.10;11.27;;;;;;;19.31;83.45;100250.50;6112049;23;20060;-69
2023/08/29 08:32:11;;;;;;;17.63;10.40;;;;;;;19.67;82.01;100254.06;6113120;23;20072;-71
2023/08/29 08:34:38;;;;;;;13.07;10.55;;;;;;;19.84;80.91;100252.44;6118092;23;20029;-73
2023/08/29 08:37:04;;;;;;;13.40;10.48;;;;;;;19.89;80.49;100252.00;6112523;23;20017;-70
2023/08/29 08:39:31;;;;;;;11.63;9.52;;;;;;;19.82;80.57;100235.75;6069885;23;20025;-70
2023/08/29 08:41:58;;;;;;;11.82;9.50;;;;;;;19.13;80.41;100155.50;6114414;23;20100;-70
2023/08/29 08:44:25;;;;;;;9.98;9.00;;;;;;;19.63;80.47;100219.91;6066142;23;20526;-70
2023/08/29 08:46:52;;;;;;;9.93;8.98;;;;;;;20.03;79.33;100243.47;6089194;23;20024;-74
2023/08/29 08:49:19;;;;;;;10.02;8.57;;;;;;;20.15;79.17;100246.75;6115974;23;20060;-70
2023/08/29 08:51:48;;;;;;;9.43;8.50;;;;;;;19.72;77.27;100136.50;6112475;23;20021;-70
2023/08/29 08:54:15;;;;;;;9.27;8.32;;;;;;;20.00;75.88;100163.84;6109140;23;20065;-70
2023/08/29 08:56:42;;;;;;;9.85;8.80;;;;;;;19.96;75.32;100174.97;6112927;23;20025;-70
2023/08/29 08:59:09;;;;;;;12.38;8.80;;;;;;;20.09;76.57;100216.22;6109824;23;20052;-70
2023/08/29 09:01:35;;;;;;;8.38;7.68;;;;;;;20.44;75.79;100235.78;6095706;23;20022;-70
2023/08/29 09:04:03;;;;;;;7.30;6.75;;;;;;;19.90;71.06;100012.13;6117828;23;20066;-71
2023/08/29 09:06:32;;;;;;;8.23;7.50;;;;;;;19.61;69.58;99961.03;6111512;23;20013;-70
2023/08/29 09:09:19;;;;;;;9.10;6.40;;;;;;;20.12;70.20;100061.38;6114510;23;20043;-70
2023/08/29 09:11:53;;;;;;;9.05;8.25;;;;;;;20.60;70.50;100138.31;6112106;23;20048;-70
2023/08/29 09:14:21;;;;;;;7.63;7.03;;;;;;;20.98;70.14;100162.81;6083343;23;20036;-71
2023/08/29 09:16:52;;;;;;;8.30;7.47;;;;;;;20.65;68.32;100046.19;6113054;23;20029;-71
2023/08/29 09:19:20;;;;;;;8.17;7.50;;;;;;;20.71;68.69;100076.72;6114211;23;20080;-70
2023/08/29 09:21:47;;;;;;;8.98;7.43;;;;;;;20.85;65.96;100028.06;6083057;23;20097;-70
2023/08/29 09:24:13;;;;;;;7.63;7.10;;;;;;;21.46;66.29;100103.41;6084876;23;20040;-70
2023/08/29 09:26:41;;;;;;;8.25;7.50;;;;;;;21.35;66.18;100089.50;6113238;23;20029;-71
2023/08/29 09:29:18;;;;;;;8.20;7.47;;;;;;;20.77;65.70;100000.53;6092696;23;20017;-70
2023/08/29 09:31:46;;;;;;;8.27;7.57;;;;;;;20.71;66.90;100098.03;6112240;23;20074;-70
2023/08/29 09:34:27;;;;;;;7.90;7.30;;;;;;;21.35;64.82;100065.50;6107329;23;20087;-70
2023/08/29 09:36:55;;;;;;;8.00;7.40;;;;;;;21.39;64.69;100073.03;6113072;23;20029;-69
2023/08/29 09:39:22;;;;;;;10.95;7.65;;;;;;;21.50;63.30;100050.53;6069923;23;20052;-70
2023/08/29 09:42:06;;;;;;;8.23;7.57;;;;;;;21.66;63.48;100082.56;6089149;23;20013;-69
2023/08/29 09:44:37;;;;;;;10.57;7.95;;;;;;;21.76;62.12;100028.97;6075542;23;20527;-70
2023/08/29 09:47:05;;;;;;;8.27;7.50;;;;;;;21.87;61.91;100063.34;6088831;23;20042;-70
2023/08/29 09:49:48;;;;;;;8.52;7.78;;;;;;;21.46;61.15;99956.56;6113364;23;20503;-70
2023/08/29 09:52:15;;;;;;;8.90;8.20;;;;;;;21.10;64.19;100060.94;6084448;23;20038;-70
2023/08/29 09:54:52;;;;;;;7.78;7.18;;;;;;;21.76;63.76;100162.53;6116672;23;20049;-69
2023/08/29 09:57:22;;;;;;;7.47;6.90;;;;;;;21.63;62.42;100071.38;6110453;23;20556;-70
2023/08/29 09:59:51;;;;;;;7.35;6.80;;;;;;;21.65;60.78;100016.81;6108988;23;20407;-70
2023/08/29 10:02:20;;;;;;;8.10;7.40;;;;;;;21.11;62.47;100013.78;6089756;23;20484;-71
2023/08/29 10:05:05;;;;;;;8.02;7.28;;;;;;;21.28;63.31;100082.16;6110055;23;20041;-70
2023/08/29 10:07:43;;;;;;;7.55;6.82;;;;;;;21.53;61.95;100074.22;6088609;23;20032;-71
2023/08/29 10:10:10;;;;;;;7.13;6.68;;;;;;;21.15;62.51;100047.13;6118868;23;20076;-70
2023/08/29 10:12:39;;;;;;;7.20;6.70;;;;;;;21.33;62.99;100071.00;6090441;23;20085;-71
2023/08/29 10:15:06;;;;;;;7.30;6.70;;;;;;;20.86;62.12;99972.88;6112524;23;20009;-72
2023/08/29 10:17:35;;;;;;;7.47;6.90;;;;;;;21.52;61.65;100073.38;6089227;23;20109;-71
2023/08/29 10:20:12;;;;;;;8.13;7.05;;;;;;;21.92;60.45;100090.38;6113052;23;20025;-70
2023/08/29 10:22:41;;;;;;;7.60;6.97;;;;;;;22.00;59.73;100019.25;6084760;23;20026;-71
2023/08/29 10:25:08;;;;;;;7.38;6.78;;;;;;;22.08;60.38;100105.56;6087211;23;20535;-70
2023/08/29 10:27:35;;;;;;;6.43;6.13;;;;;;;21.91;59.35;100032.63;6109142;23;20025;-70
2023/08/29 10:30:02;;;;;;;6.72;6.22;;;;;;;21.60;60.05;100034.34;6115027;23;20057;-70
2023/08/29 10:32:30;;;;;;;6.57;6.18;;;;;;;21.21;60.89;100014.47;6111763;23;20060;-70
2023/08/29 10:34:57;;;;;;;6.35;5.95;;;;;;;21.39;59.67;100000.94;6108709;23;20653;-71
2023/08/29 10:37:25;;;;;;;6.40;6.00;;;;;;;22.05;59.91;100078.34;6111380;23;20507;-70
2023/08/29 10:39:52;;;;;;;6.57;6.18;;;;;;;21.35;59.14;99983.59;6108069;23;20036;-70
2023/08/29 10:42:18;;;;;;;5.90;5.60;;;;;;;21.72;60.93;100118.44;6113352;23;20071;-71
2023/08/29 10:44:46;;;;;;;6.50;6.10;;;;;;;21.90;59.77;100094.25;6060980;23;20037;-70
2023/08/29 10:47:19;;;;;;;6.40;6.00;;;;;;;21.66;60.55;100095.09;6086494;23;20085;-70
2023/08/29 10:49:47;;;;;;;6.70;6.25;;;;;;;21.33;59.80;100009.63;6067570;23;20089;-70
2023/08/29 10:52:14;;;;;;;6.40;6.05;;;;;;;21.08;60.49;100041.59;6110854;23;20053;-70
2023/08/29 10:54:41;;;;;;;6.15;5.78;;;;;;;20.51;61.37;100012.94;6109515;23;20027;-70
2023/08/29 10:57:30;;;;;;;6.40;6.00;;;;;;;21.18;60.96;100086.81;6110077;23;20093;-70
2023/08/29 10:59:57;;;;;;;6.13;5.82;;;;;;;21.21;61.18;100134.53;6080308;23;20029;-70
2023/08/29 11:02:31;;;;;;;6.40;6.00;;;;;;;20.20;61.35;100015.31;6111542;23;20021;-70
2023/08/29 11:05:03;;;;;;;6.20;5.80;;;;;;;20.24;62.80;100104.56;6111619;23;20048;-70
2023/08/29 11:07:31;;;;;;;6.43;6.03;;;;;;;20.05;63.02;100116.28;6106866;23;20409;-70
2023/08/29 11:10:22;;;;;;;6.60;6.20;;;;;;;19.48;64.06;100100.69;6098787;23;20036;-70
2023/08/29 11:13:12;;;;;;;6.70;6.20;;;;;;;19.61;63.33;100080.81;6089377;23;20029;-73
2023/08/29 11:15:47;;;;;;;6.50;6.10;;;;;;;20.15;62.41;100147.34;6086576;23;20030;-70
2023/08/29 11:18:32;;;;;;;6.45;6.05;;;;;;;20.25;63.08;100178.22;6116355;23;20041;-70